sensor_id;sensor_type;location;lat;lon;timestamp;temperature;humidity
7598;DHT22;3840;59.32098800;18.06423600;2023-12-07T00:01:58;-6.20;99.90
7598;DHT22;3840;59.32098800;18.06423600;2023-12-07T00:04:25;-6.10;99.90
7598;DHT22;3840;59.32098800;18.06423600;2023-12-07T00:06:51;-6.00;99.90
7598;DHT22;3840;59.32098800;18.06423600;2023-12-07T00:09:16;-6.00;99.90
7598;DHT22;3840;59.32098800;18.06423600;2023-12-07T00:11:42;-5.90;99.90
7598;DHT22;3840;59.32098800;18.06423600;2023-12-07T00:14:08;-6.00;99.90
7598;DHT22;3840;59.32098800;18.06423600;2023-12-07T00:16:33;-5.90;99.90
7598;DHT22;3840;59.32098800;18.06423600;2023-12-07T00:19:00;-5.90;99.90
7598;DHT22;3840;59.32098800;18.06423600;2023-12-07T00:21:26;-5.60;99.90
7598;DHT22;3840;59.32098800;18.06423600;2023-12-07T00:23:52;-5.80;99.90
7598;DHT22;3840;59.32098800;18.06423600;2023-12-07T00:26:18;-5.70;99.90
7598;DHT22;3840;59.32098800;18.06423600;2023-12-07T00:28:43;-5.70;99.90
7598;DHT22;3840;59.32098800;18.06423600;2023-12-07T00:31:09;-5.60;99.90
7598;DHT22;3840;59.32098800;18.06423600;2023-12-07T00:33:37;-5.70;99.90
7598;DHT22;3840;59.32098800;18.06423600;2023-12-07T00:36:03;-5.70;99.90
7598;DHT22;3840;59.32098800;18.06423600;2023-12-07T00:38:29;-5.60;99.90
7598;DHT22;3840;59.32098800;18.06423600;2023-12-07T00:40:57;-5.60;99.90
7598;DHT22;3840;59.32098800;18.06423600;2023-12-07T00:43:23;-5.60;99.90
7598;DHT22;3840;59.32098800;18.06423600;2023-12-07T00:45:49;-5.60;99.90
7598;DHT22;3840;59.32098800;18.06423600;2023-12-07T00:48:15;-5.50;99.90
7598;DHT22;3840;59.32098800;18.06423600;2023-12-07T00:50:40;-5.60;99.90
7598;DHT22;3840;59.32098800;18.06423600;2023-12-07T00:53:07;-5.50;99.90
7598;DHT22;3840;59.32098800;18.06423600;2023-12-07T00:55:32;-5.50;99.90
7598;DHT22;3840;59.32098800;18.06423600;2023-12-07T00:58:01;-5.50;99.90
7598;DHT22;3840;59.32098800;18.06423600;2023-12-07T01:00:27;-5.50;99.90
7598;DHT22;3840;59.32098800;18.06423600;2023-12-07T01:02:53;-5.40;99.90
7598;DHT22;3840;59.32098800;18.06423600;2023-12-07T01:05:19;-5.50;99.90
7598;DHT22;3840;59.32098800;18.06423600;2023-12-07T01:07:44;-5.50;99.90
7598;DHT22;3840;59.32098800;18.06423600;2023-12-07T01:10:11;-5.50;99.90
7598;DHT22;3840;59.32098800;18.06423600;2023-12-07T01:12:37;-5.40;99.90
7598;DHT22;3840;59.32098800;18.06423600;2023-12-07T01:15:04;-5.40;99.90
7598;DHT22;3840;59.32098800;18.06423600;2023-12-07T01:17:30;-5.40;99.90
7598;DHT22;3840;59.32098800;18.06423600;2023-12-07T01:19:55;-5.30;99.90
7598;DHT22;3840;59.32098800;18.06423600;2023-12-07T01:22:22;-5.20;99.90
7598;DHT22;3840;59.32098800;18.06423600;2023-12-07T01:24:49;-5.20;99.90
7598;DHT22;3840;59.32098800;18.06423600;2023-12-07T01:27:15;-5.30;99.90
7598;DHT22;3840;59.32098800;18.06423600;2023-12-07T01:29:41;-5.20;99.90
7598;DHT22;3840;59.32098800;18.06423600;2023-12-07T01:32:07;-5.20;99.90
7598;DHT22;3840;59.32098800;18.06423600;2023-12-07T01:34:33;-5.10;99.90
7598;DHT22;3840;59.32098800;18.06423600;2023-12-07T01:36:59;-5.10;99.90
7598;DHT22;3840;59.32098800;18.06423600;2023-12-07T01:39:24;-5.20;99.90
7598;DHT22;3840;59.32098800;18.06423600;2023-12-07T01:41:53;-5.10;99.90
7598;DHT22;3840;59.32098800;18.06423600;2023-12-07T01:44:18;-5.00;99.90
7598;DHT22;3840;59.32098800;18.06423600;2023-12-07T01:46:46;-4.90;99.90
7598;DHT22;3840;59.32098800;18.06423600;2023-12-07T01:49:12;-5.00;99.90
7598;DHT22;3840;59.32098800;18.06423600;2023-12-07T01:51:41;-5.00;99.90
7598;DHT22;3840;59.32098800;18.06423600;2023-12-07T01:54:06;-5.00;99.90
7598;DHT22;3840;59.32098800;18.06423600;2023-12-07T01:56:32;-5.00;99.90
7598;DHT22;3840;59.32098800;18.06423600;2023-12-07T01:58:58;-4.70;99.90
7598;DHT22;3840;59.32098800;18.06423600;2023-12-07T02:01:23;-5.00;99.90
7598;DHT22;3840;59.32098800;18.06423600;2023-12-07T02:03:49;-5.00;99.90
7598;DHT22;3840;59.32098800;18.06423600;2023-12-07T02:06:15;-5.00;99.90
7598;DHT22;3840;59.32098800;18.06423600;2023-12-07T02:08:43;-5.00;99.90
7598;DHT22;3840;59.32098800;18.06423600;2023-12-07T02:11:09;-5.00;99.90
7598;DHT22;3840;59.32098800;18.06423600;2023-12-07T02:13:39;-5.00;99.90
7598;DHT22;3840;59.32098800;18.06423600;2023-12-07T02:16:14;-5.10;99.90
7598;DHT22;3840;59.32098800;18.06423600;2023-12-07T02:18:44;-5.10;99.90
7598;DHT22;3840;59.32098800;18.06423600;2023-12-07T02:21:23;-5.10;99.90
7598;DHT22;3840;59.32098800;18.06423600;2023-12-07T02:23:51;-5.10;99.90
7598;DHT22;3840;59.32098800;18.06423600;2023-12-07T02:26:37;-5.10;99.90
7598;DHT22;3840;59.32098800;18.06423600;2023-12-07T02:29:03;-5.20;99.90
7598;DHT22;3840;59.32098800;18.06423600;2023-12-07T02:31:29;-5.20;99.90
7598;DHT22;3840;59.32098800;18.06423600;2023-12-07T02:33:57;-5.30;99.90
7598;DHT22;3840;59.32098800;18.06423600;2023-12-07T02:36:24;-5.30;99.90
7598;DHT22;3840;59.32098800;18.06423600;2023-12-07T02:38:51;-5.30;99.90
7598;DHT22;3840;59.32098800;18.06423600;2023-12-07T02:41:21;-5.30;99.90
7598;DHT22;3840;59.32098800;18.06423600;2023-12-07T02:43:47;-5.30;99.90
7598;DHT22;3840;59.32098800;18.06423600;2023-12-07T02:46:13;-5.20;99.90
7598;DHT22;3840;59.32098800;18.06423600;2023-12-07T02:48:39;-5.20;99.90
7598;DHT22;3840;59.32098800;18.06423600;2023-12-07T02:51:04;-5.20;99.90
7598;DHT22;3840;59.32098800;18.06423600;2023-12-07T02:53:30;-5.20;99.90
7598;DHT22;3840;59.32098800;18.06423600;2023-12-07T02:55:56;-5.20;99.90
7598;DHT22;3840;59.32098800;18.06423600;2023-12-07T02:58:21;-5.20;99.90
7598;DHT22;3840;59.32098800;18.06423600;2023-12-07T03:00:50;-5.30;99.90
7598;DHT22;3840;59.32098800;18.06423600;2023-12-07T03:03:15;-5.30;99.90
7598;DHT22;3840;59.32098800;18.06423600;2023-12-07T03:05:41;-5.30;99.90
7598;DHT22;3840;59.32098800;18.06423600;2023-12-07T03:08:07;-5.40;99.90
7598;DHT22;3840;59.32098800;18.06423600;2023-12-07T03:10:32;-5.30;99.90
7598;DHT22;3840;59.32098800;18.06423600;2023-12-07T03:12:58;-5.30;99.90
7598;DHT22;3840;59.32098800;18.06423600;2023-12-07T03:15:23;-5.20;99.90
7598;DHT22;3840;59.32098800;18.06423600;2023-12-07T03:17:50;-5.40;99.90
7598;DHT22;3840;59.32098800;18.06423600;2023-12-07T03:20:16;-5.30;99.90
7598;DHT22;3840;59.32098800;18.06423600;2023-12-07T03:22:43;-5.30;99.90
7598;DHT22;3840;59.32098800;18.06423600;2023-12-07T03:25:09;-5.30;99.90
7598;DHT22;3840;59.32098800;18.06423600;2023-12-07T03:27:35;-5.30;99.90
7598;DHT22;3840;59.32098800;18.06423600;2023-12-07T03:30:01;-5.30;99.90
7598;DHT22;3840;59.32098800;18.06423600;2023-12-07T03:32:27;-5.30;99.90
7598;DHT22;3840;59.32098800;18.06423600;2023-12-07T03:34:53;-5.30;99.90
7598;DHT22;3840;59.32098800;18.06423600;2023-12-07T03:37:18;-5.30;99.90
7598;DHT22;3840;59.32098800;18.06423600;2023-12-07T03:39:44;-5.20;99.90
7598;DHT22;3840;59.32098800;18.06423600;2023-12-07T03:42:10;-5.10;99.90
7598;DHT22;3840;59.32098800;18.06423600;2023-12-07T03:44:35;-5.20;99.90
7598;DHT22;3840;59.32098800;18.06423600;2023-12-07T03:47:01;-5.10;99.90
7598;DHT22;3840;59.32098800;18.06423600;2023-12-07T03:49:28;-5.10;99.90
7598;DHT22;3840;59.32098800;18.06423600;2023-12-07T03:51:54;-5.10;99.90
7598;DHT22;3840;59.32098800;18.06423600;2023-12-07T03:54:19;-5.10;99.90
7598;DHT22;3840;59.32098800;18.06423600;2023-12-07T03:56:45;-5.10;99.90
7598;DHT22;3840;59.32098800;18.06423600;2023-12-07T03:59:11;-5.10;99.90
7598;DHT22;3840;59.32098800;18.06423600;2023-12-07T04:01:36;-5.10;99.90
7598;DHT22;3840;59.32098800;18.06423600;2023-12-07T04:04:02;-5.10;99.90
7598;DHT22;3840;59.32098800;18.06423600;2023-12-07T04:06:28;-5.10;99.90
7598;DHT22;3840;59.32098800;18.06423600;2023-12-07T04:08:54;-5.10;99.90
7598;DHT22;3840;59.32098800;18.06423600;2023-12-07T04:11:19;-5.10;99.90
7598;DHT22;3840;59.32098800;18.06423600;2023-12-07T04:13:46;-5.10;99.90
7598;DHT22;3840;59.32098800;18.06423600;2023-12-07T04:16:12;-5.10;99.90
7598;DHT22;3840;59.32098800;18.06423600;2023-12-07T04:18:37;-5.10;99.90
7598;DHT22;3840;59.32098800;18.06423600;2023-12-07T04:21:04;-5.00;99.90
7598;DHT22;3840;59.32098800;18.06423600;2023-12-07T04:23:31;-5.00;99.90
7598;DHT22;3840;59.32098800;18.06423600;2023-12-07T04:25:56;-5.00;99.90
7598;DHT22;3840;59.32098800;18.06423600;2023-12-07T04:28:22;-5.00;99.90
7598;DHT22;3840;59.32098800;18.06423600;2023-12-07T04:30:48;-5.00;99.90
7598;DHT22;3840;59.32098800;18.06423600;2023-12-07T04:33:13;-5.00;99.90
7598;DHT22;3840;59.32098800;18.06423600;2023-12-07T04:35:39;-5.00;99.90
7598;DHT22;3840;59.32098800;18.06423600;2023-12-07T04:38:05;-5.00;99.90
7598;DHT22;3840;59.32098800;18.06423600;2023-12-07T04:40:30;-5.00;99.90
7598;DHT22;3840;59.32098800;18.06423600;2023-12-07T04:42:56;-4.60;99.90
7598;DHT22;3840;59.32098800;18.06423600;2023-12-07T04:45:22;-4.90;99.90
7598;DHT22;3840;59.32098800;18.06423600;2023-12-07T04:47:47;-4.80;99.90
7598;DHT22;3840;59.32098800;18.06423600;2023-12-07T04:50:13;-4.70;99.90
7598;DHT22;3840;59.32098800;18.06423600;2023-12-07T04:52:39;-4.60;99.90
7598;DHT22;3840;59.32098800;18.06423600;2023-12-07T04:55:06;-4.60;99.90
7598;DHT22;3840;59.32098800;18.06423600;2023-12-07T04:57:34;-4.50;99.90
7598;DHT22;3840;59.32098800;18.06423600;2023-12-07T04:59:59;-4.40;99.90
7598;DHT22;3840;59.32098800;18.06423600;2023-12-07T05:02:26;-4.40;99.90
7598;DHT22;3840;59.32098800;18.06423600;2023-12-07T05:04:53;-4.40;99.90
7598;DHT22;3840;59.32098800;18.06423600;2023-12-07T05:07:20;-4.30;99.90
7598;DHT22;3840;59.32098800;18.06423600;2023-12-07T05:09:45;-4.30;99.90
7598;DHT22;3840;59.32098800;18.06423600;2023-12-07T05:12:11;-4.10;99.90
7598;DHT22;3840;59.32098800;18.06423600;2023-12-07T05:14:37;-4.20;99.90
7598;DHT22;3840;59.32098800;18.06423600;2023-12-07T05:17:04;-4.10;99.90
7598;DHT22;3840;59.32098800;18.06423600;2023-12-07T05:19:30;-4.20;99.90
7598;DHT22;3840;59.32098800;18.06423600;2023-12-07T05:21:56;-4.00;99.90
7598;DHT22;3840;59.32098800;18.06423600;2023-12-07T05:24:22;-4.10;99.90
7598;DHT22;3840;59.32098800;18.06423600;2023-12-07T05:26:47;-4.20;99.90
7598;DHT22;3840;59.32098800;18.06423600;2023-12-07T05:29:14;-4.20;99.90
7598;DHT22;3840;59.32098800;18.06423600;2023-12-07T05:31:40;-4.20;99.90
7598;DHT22;3840;59.32098800;18.06423600;2023-12-07T05:34:06;-4.20;99.90
7598;DHT22;3840;59.32098800;18.06423600;2023-12-07T05:36:32;-4.20;99.90
7598;DHT22;3840;59.32098800;18.06423600;2023-12-07T05:38:59;-4.10;99.90
7598;DHT22;3840;59.32098800;18.06423600;2023-12-07T05:41:25;-4.10;99.90
7598;DHT22;3840;59.32098800;18.06423600;2023-12-07T05:43:51;-4.00;99.90
7598;DHT22;3840;59.32098800;18.06423600;2023-12-07T05:46:18;-3.90;99.90
7598;DHT22;3840;59.32098800;18.06423600;2023-12-07T05:48:44;-3.90;99.90
7598;DHT22;3840;59.32098800;18.06423600;2023-12-07T05:51:18;-3.80;99.90
7598;DHT22;3840;59.32098800;18.06423600;2023-12-07T05:53:45;-3.90;99.90
7598;DHT22;3840;59.32098800;18.06423600;2023-12-07T05:56:11;-3.80;99.90
7598;DHT22;3840;59.32098800;18.06423600;2023-12-07T05:58:37;-3.80;99.90
7598;DHT22;3840;59.32098800;18.06423600;2023-12-07T06:01:03;-3.80;99.90
7598;DHT22;3840;59.32098800;18.06423600;2023-12-07T06:03:29;-3.80;99.90
7598;DHT22;3840;59.32098800;18.06423600;2023-12-07T06:05:55;-3.80;99.90
7598;DHT22;3840;59.32098800;18.06423600;2023-12-07T06:08:21;-3.60;99.90
7598;DHT22;3840;59.32098800;18.06423600;2023-12-07T06:10:47;-3.70;99.90
7598;DHT22;3840;59.32098800;18.06423600;2023-12-07T06:13:13;-3.60;99.90
7598;DHT22;3840;59.32098800;18.06423600;2023-12-07T06:15:40;-3.50;99.90
7598;DHT22;3840;59.32098800;18.06423600;2023-12-07T06:18:07;-3.50;99.90
7598;DHT22;3840;59.32098800;18.06423600;2023-12-07T06:20:34;-3.50;99.90
7598;DHT22;3840;59.32098800;18.06423600;2023-12-07T06:23:00;-3.50;99.90
7598;DHT22;3840;59.32098800;18.06423600;2023-12-07T06:25:27;-3.40;99.90
7598;DHT22;3840;59.32098800;18.06423600;2023-12-07T06:27:53;-3.20;99.90
7598;DHT22;3840;59.32098800;18.06423600;2023-12-07T06:30:18;-3.30;99.90
7598;DHT22;3840;59.32098800;18.06423600;2023-12-07T06:32:44;-3.30;99.90
7598;DHT22;3840;59.32098800;18.06423600;2023-12-07T06:35:13;-3.30;99.90
7598;DHT22;3840;59.32098800;18.06423600;2023-12-07T06:37:39;-3.30;99.90
7598;DHT22;3840;59.32098800;18.06423600;2023-12-07T06:40:08;-3.10;99.90
7598;DHT22;3840;59.32098800;18.06423600;2023-12-07T06:42:35;-3.20;99.90
7598;DHT22;3840;59.32098800;18.06423600;2023-12-07T06:45:01;-3.20;99.90
7598;DHT22;3840;59.32098800;18.06423600;2023-12-07T06:47:27;-3.30;99.90
7598;DHT22;3840;59.32098800;18.06423600;2023-12-07T06:49:53;-3.20;99.90
7598;DHT22;3840;59.32098800;18.06423600;2023-12-07T06:52:19;-3.20;99.90
7598;DHT22;3840;59.32098800;18.06423600;2023-12-07T06:54:47;-3.20;99.90
7598;DHT22;3840;59.32098800;18.06423600;2023-12-07T06:57:14;-3.10;99.90
7598;DHT22;3840;59.32098800;18.06423600;2023-12-07T06:59:40;-3.10;99.90
7598;DHT22;3840;59.32098800;18.06423600;2023-12-07T07:02:09;-3.10;99.90
7598;DHT22;3840;59.32098800;18.06423600;2023-12-07T07:04:35;-3.10;99.90
7598;DHT22;3840;59.32098800;18.06423600;2023-12-07T07:07:01;-3.10;99.90
7598;DHT22;3840;59.32098800;18.06423600;2023-12-07T07:09:26;-3.00;99.90
7598;DHT22;3840;59.32098800;18.06423600;2023-12-07T07:11:52;-3.00;99.90
7598;DHT22;3840;59.32098800;18.06423600;2023-12-07T07:14:19;-2.90;99.90
7598;DHT22;3840;59.32098800;18.06423600;2023-12-07T07:16:44;-2.90;99.90
7598;DHT22;3840;59.32098800;18.06423600;2023-12-07T07:19:10;-2.90;99.90
7598;DHT22;3840;59.32098800;18.06423600;2023-12-07T07:21:36;-2.90;99.90
7598;DHT22;3840;59.32098800;18.06423600;2023-12-07T07:24:02;-2.80;99.90
7598;DHT22;3840;59.32098800;18.06423600;2023-12-07T07:26:28;-2.80;99.90
7598;DHT22;3840;59.32098800;18.06423600;2023-12-07T07:28:53;-2.80;99.90
7598;DHT22;3840;59.32098800;18.06423600;2023-12-07T07:31:19;-2.80;99.90
7598;DHT22;3840;59.32098800;18.06423600;2023-12-07T07:33:46;-2.80;99.90
7598;DHT22;3840;59.32098800;18.06423600;2023-12-07T07:36:13;-2.80;99.90
7598;DHT22;3840;59.32098800;18.06423600;2023-12-07T07:38:41;-2.80;99.90
7598;DHT22;3840;59.32098800;18.06423600;2023-12-07T07:41:08;-2.80;99.90
7598;DHT22;3840;59.32098800;18.06423600;2023-12-07T07:43:34;-2.80;99.90
7598;DHT22;3840;59.32098800;18.06423600;2023-12-07T07:46:00;-2.70;99.90
7598;DHT22;3840;59.32098800;18.06423600;2023-12-07T07:48:26;-2.70;99.90
7598;DHT22;3840;59.32098800;18.06423600;2023-12-07T07:50:52;-2.60;99.90
7598;DHT22;3840;59.32098800;18.06423600;2023-12-07T07:53:18;-2.50;99.90
7598;DHT22;3840;59.32098800;18.06423600;2023-12-07T07:55:43;-2.60;99.90
7598;DHT22;3840;59.32098800;18.06423600;2023-12-07T07:58:09;-2.50;99.90
7598;DHT22;3840;59.32098800;18.06423600;2023-12-07T08:00:35;-2.50;99.90
7598;DHT22;3840;59.32098800;18.06423600;2023-12-07T08:03:01;-2.50;99.90
7598;DHT22;3840;59.32098800;18.06423600;2023-12-07T08:05:27;-2.50;99.90
7598;DHT22;3840;59.32098800;18.06423600;2023-12-07T08:07:52;-2.50;99.90
7598;DHT22;3840;59.32098800;18.06423600;2023-12-07T08:10:18;-2.50;99.90
7598;DHT22;3840;59.32098800;18.06423600;2023-12-07T08:12:44;-2.40;99.90
7598;DHT22;3840;59.32098800;18.06423600;2023-12-07T08:15:10;-2.30;99.90
7598;DHT22;3840;59.32098800;18.06423600;2023-12-07T08:17:42;-2.20;99.90
7598;DHT22;3840;59.32098800;18.06423600;2023-12-07T08:20:09;-2.20;99.90
7598;DHT22;3840;59.32098800;18.06423600;2023-12-07T08:22:39;-2.20;99.90
7598;DHT22;3840;59.32098800;18.06423600;2023-12-07T08:25:06;-2.20;99.90
7598;DHT22;3840;59.32098800;18.06423600;2023-12-07T08:27:33;-2.00;99.90
7598;DHT22;3840;59.32098800;18.06423600;2023-12-07T08:29:59;-2.10;99.90
7598;DHT22;3840;59.32098800;18.06423600;2023-12-07T08:32:25;-2.10;99.90
7598;DHT22;3840;59.32098800;18.06423600;2023-12-07T08:34:54;-2.00;99.90
7598;DHT22;3840;59.32098800;18.06423600;2023-12-07T08:37:20;-2.00;99.90
7598;DHT22;3840;59.32098800;18.06423600;2023-12-07T08:39:46;-2.00;99.90
7598;DHT22;3840;59.32098800;18.06423600;2023-12-07T08:42:12;-1.90;99.90
7598;DHT22;3840;59.32098800;18.06423600;2023-12-07T08:44:38;-1.90;99.90
7598;DHT22;3840;59.32098800;18.06423600;2023-12-07T08:47:04;-1.90;99.90
7598;DHT22;3840;59.32098800;18.06423600;2023-12-07T08:49:30;-1.90;99.90
7598;DHT22;3840;59.32098800;18.06423600;2023-12-07T08:51:57;-1.90;99.90
7598;DHT22;3840;59.32098800;18.06423600;2023-12-07T08:54:22;-1.80;99.90
7598;DHT22;3840;59.32098800;18.06423600;2023-12-07T08:56:48;-1.80;99.90
7598;DHT22;3840;59.32098800;18.06423600;2023-12-07T08:59:14;-1.80;99.90
7598;DHT22;3840;59.32098800;18.06423600;2023-12-07T09:01:39;-1.50;99.90
7598;DHT22;3840;59.32098800;18.06423600;2023-12-07T09:04:09;-1.70;99.90
7598;DHT22;3840;59.32098800;18.06423600;2023-12-07T09:06:36;-1.70;99.90
7598;DHT22;3840;59.32098800;18.06423600;2023-12-07T09:09:04;-1.70;99.90
7598;DHT22;3840;59.32098800;18.06423600;2023-12-07T09:11:30;-1.60;99.90
7598;DHT22;3840;59.32098800;18.06423600;2023-12-07T09:13:56;-1.60;99.90
7598;DHT22;3840;59.32098800;18.06423600;2023-12-07T09:16:22;-1.50;99.90
7598;DHT22;3840;59.32098800;18.06423600;2023-12-07T09:18:48;-1.20;99.90
7598;DHT22;3840;59.32098800;18.06423600;2023-12-07T09:21:15;-1.40;99.90
7598;DHT22;3840;59.32098800;18.06423600;2023-12-07T09:23:41;-1.40;99.90
7598;DHT22;3840;59.32098800;18.06423600;2023-12-07T09:26:06;-1.30;99.90
7598;DHT22;3840;59.32098800;18.06423600;2023-12-07T09:28:33;-1.30;99.90
7598;DHT22;3840;59.32098800;18.06423600;2023-12-07T09:30:59;-1.30;99.90
7598;DHT22;3840;59.32098800;18.06423600;2023-12-07T09:33:26;-1.10;99.90
7598;DHT22;3840;59.32098800;18.06423600;2023-12-07T09:35:54;-1.20;99.90
7598;DHT22;3840;59.32098800;18.06423600;2023-12-07T09:38:19;-1.20;99.90
7598;DHT22;3840;59.32098800;18.06423600;2023-12-07T09:40:46;-1.20;99.90
7598;DHT22;3840;59.32098800;18.06423600;2023-12-07T09:43:12;-1.10;99.90
7598;DHT22;3840;59.32098800;18.06423600;2023-12-07T09:45:38;-1.10;99.90
7598;DHT22;3840;59.32098800;18.06423600;2023-12-07T09:48:05;-1.10;99.90
7598;DHT22;3840;59.32098800;18.06423600;2023-12-07T09:50:31;-1.00;99.90
7598;DHT22;3840;59.32098800;18.06423600;2023-12-07T09:52:58;-1.00;99.90
7598;DHT22;3840;59.32098800;18.06423600;2023-12-07T09:55:24;-1.00;99.90
7598;DHT22;3840;59.32098800;18.06423600;2023-12-07T09:57:51;-1.00;99.90
7598;DHT22;3840;59.32098800;18.06423600;2023-12-07T10:00:20;-1.00;99.90
7598;DHT22;3840;59.32098800;18.06423600;2023-12-07T10:02:46;-0.90;99.90
7598;DHT22;3840;59.32098800;18.06423600;2023-12-07T10:05:13;-0.90;99.90
7598;DHT22;3840;59.32098800;18.06423600;2023-12-07T10:07:44;-0.90;99.90
7598;DHT22;3840;59.32098800;18.06423600;2023-12-07T10:10:10;-0.80;99.90
7598;DHT22;3840;59.32098800;18.06423600;2023-12-07T10:12:45;-0.80;99.90
7598;DHT22;3840;59.32098800;18.06423600;2023-12-07T10:15:15;-0.80;99.90
7598;DHT22;3840;59.32098800;18.06423600;2023-12-07T10:17:55;-0.70;99.90
7598;DHT22;3840;59.32098800;18.06423600;2023-12-07T10:20:23;-0.70;99.90
7598;DHT22;3840;59.32098800;18.06423600;2023-12-07T10:23:01;-0.70;99.90
7598;DHT22;3840;59.32098800;18.06423600;2023-12-07T10:25:31;-0.60;99.90
7598;DHT22;3840;59.32098800;18.06423600;2023-12-07T10:27:57;-0.60;99.90
7598;DHT22;3840;59.32098800;18.06423600;2023-12-07T10:30:23;-0.50;99.90
7598;DHT22;3840;59.32098800;18.06423600;2023-12-07T10:32:51;-0.60;99.90
7598;DHT22;3840;59.32098800;18.06423600;2023-12-07T10:35:18;-0.60;99.90
7598;DHT22;3840;59.32098800;18.06423600;2023-12-07T10:37:46;-0.50;99.90
7598;DHT22;3840;59.32098800;18.06423600;2023-12-07T10:40:13;-0.50;99.90
7598;DHT22;3840;59.32098800;18.06423600;2023-12-07T10:42:42;-0.50;99.90
7598;DHT22;3840;59.32098800;18.06423600;2023-12-07T10:45:11;-0.50;99.90
7598;DHT22;3840;59.32098800;18.06423600;2023-12-07T10:47:40;-0.40;99.90
7598;DHT22;3840;59.32098800;18.06423600;2023-12-07T10:50:09;-0.40;99.90
7598;DHT22;3840;59.32098800;18.06423600;2023-12-07T10:52:45;-0.40;99.90
7598;DHT22;3840;59.32098800;18.06423600;2023-12-07T10:55:16;-0.40;99.90
7598;DHT22;3840;59.32098800;18.06423600;2023-12-07T10:57:47;-0.60;99.90
7598;DHT22;3840;59.32098800;18.06423600;2023-12-07T11:00:14;-0.40;99.90
7598;DHT22;3840;59.32098800;18.06423600;2023-12-07T11:02:41;-0.40;99.90
7598;DHT22;3840;59.32098800;18.06423600;2023-12-07T11:05:11;-0.30;99.90
7598;DHT22;3840;59.32098800;18.06423600;2023-12-07T11:13:20;-0.20;99.90
7598;DHT22;3840;59.32098800;18.06423600;2023-12-07T11:15:48;-0.30;99.90
7598;DHT22;3840;59.32098800;18.06423600;2023-12-07T11:18:15;-0.20;99.90
7598;DHT22;3840;59.32098800;18.06423600;2023-12-07T11:20:45;-0.20;99.90
7598;DHT22;3840;59.32098800;18.06423600;2023-12-07T11:23:17;-0.20;99.90
7598;DHT22;3840;59.32098800;18.06423600;2023-12-07T11:25:44;-0.20;99.90
7598;DHT22;3840;59.32098800;18.06423600;2023-12-07T11:28:12;-0.20;99.90
7598;DHT22;3840;59.32098800;18.06423600;2023-12-07T11:30:42;-0.10;99.90
7598;DHT22;3840;59.32098800;18.06423600;2023-12-07T11:33:09;-0.10;99.90
7598;DHT22;3840;59.32098800;18.06423600;2023-12-07T11:38:28;0.00;99.90
7598;DHT22;3840;59.32098800;18.06423600;2023-12-07T11:40:55;0.00;99.90
7598;DHT22;3840;59.32098800;18.06423600;2023-12-07T11:46:01;0.00;99.90
7598;DHT22;3840;59.32098800;18.06423600;2023-12-07T11:48:27;0.00;99.90
7598;DHT22;3840;59.32098800;18.06423600;2023-12-07T11:53:28;0.10;99.90
7598;DHT22;3840;59.32098800;18.06423600;2023-12-07T11:55:58;0.20;99.90
7598;DHT22;3840;59.32098800;18.06423600;2023-12-07T11:58:34;0.20;99.90
7598;DHT22;3840;59.32098800;18.06423600;2023-12-07T12:01:01;0.20;99.90
7598;DHT22;3840;59.32098800;18.06423600;2023-12-07T12:03:29;0.10;99.90
7598;DHT22;3840;59.32098800;18.06423600;2023-12-07T12:05:56;0.20;99.90
7598;DHT22;3840;59.32098800;18.06423600;2023-12-07T12:08:22;0.20;99.90
7598;DHT22;3840;59.32098800;18.06423600;2023-12-07T12:10:50;0.20;99.90
7598;DHT22;3840;59.32098800;18.06423600;2023-12-07T12:13:18;0.20;99.90
7598;DHT22;3840;59.32098800;18.06423600;2023-12-07T12:15:45;0.20;99.90
7598;DHT22;3840;59.32098800;18.06423600;2023-12-07T12:18:12;0.20;99.90
7598;DHT22;3840;59.32098800;18.06423600;2023-12-07T12:20:39;0.20;99.90
7598;DHT22;3840;59.32098800;18.06423600;2023-12-07T12:23:05;0.20;99.90
7598;DHT22;3840;59.32098800;18.06423600;2023-12-07T12:25:32;0.20;99.90
7598;DHT22;3840;59.32098800;18.06423600;2023-12-07T12:28:03;0.20;99.90
7598;DHT22;3840;59.32098800;18.06423600;2023-12-07T12:30:30;0.20;99.90
7598;DHT22;3840;59.32098800;18.06423600;2023-12-07T12:32:56;0.30;99.90
7598;DHT22;3840;59.32098800;18.06423600;2023-12-07T12:35:22;0.30;99.90
7598;DHT22;3840;59.32098800;18.06423600;2023-12-07T12:37:49;0.30;99.90
7598;DHT22;3840;59.32098800;18.06423600;2023-12-07T12:40:18;0.40;99.90
7598;DHT22;3840;59.32098800;18.06423600;2023-12-07T12:42:48;0.40;99.90
7598;DHT22;3840;59.32098800;18.06423600;2023-12-07T12:45:15;0.20;99.90
7598;DHT22;3840;59.32098800;18.06423600;2023-12-07T12:47:42;0.40;99.90
7598;DHT22;3840;59.32098800;18.06423600;2023-12-07T12:50:11;0.40;99.90
7598;DHT22;3840;59.32098800;18.06423600;2023-12-07T12:52:40;0.40;99.90
7598;DHT22;3840;59.32098800;18.06423600;2023-12-07T12:55:10;0.50;99.90
7598;DHT22;3840;59.32098800;18.06423600;2023-12-07T12:57:36;0.40;99.90
7598;DHT22;3840;59.32098800;18.06423600;2023-12-07T13:00:05;0.30;99.90
7598;DHT22;3840;59.32098800;18.06423600;2023-12-07T13:02:33;0.40;99.90
7598;DHT22;3840;59.32098800;18.06423600;2023-12-07T13:05:00;0.40;99.90
7598;DHT22;3840;59.32098800;18.06423600;2023-12-07T13:07:26;0.40;99.90
7598;DHT22;3840;59.32098800;18.06423600;2023-12-07T13:09:51;0.40;99.90
7598;DHT22;3840;59.32098800;18.06423600;2023-12-07T13:12:17;0.30;99.90
7598;DHT22;3840;59.32098800;18.06423600;2023-12-07T13:14:44;0.30;99.90
7598;DHT22;3840;59.32098800;18.06423600;2023-12-07T13:17:09;0.30;99.90
7598;DHT22;3840;59.32098800;18.06423600;2023-12-07T13:19:35;0.30;99.90
7598;DHT22;3840;59.32098800;18.06423600;2023-12-07T13:22:02;0.30;99.90
7598;DHT22;3840;59.32098800;18.06423600;2023-12-07T13:24:29;0.40;99.90
7598;DHT22;3840;59.32098800;18.06423600;2023-12-07T13:26:56;0.40;99.90
7598;DHT22;3840;59.32098800;18.06423600;2023-12-07T13:29:23;0.50;99.90
7598;DHT22;3840;59.32098800;18.06423600;2023-12-07T13:31:49;0.40;99.90
7598;DHT22;3840;59.32098800;18.06423600;2023-12-07T13:34:15;0.40;99.90
7598;DHT22;3840;59.32098800;18.06423600;2023-12-07T13:36:41;0.40;99.90
7598;DHT22;3840;59.32098800;18.06423600;2023-12-07T13:39:07;0.40;99.90
7598;DHT22;3840;59.32098800;18.06423600;2023-12-07T13:41:34;0.40;99.90
7598;DHT22;3840;59.32098800;18.06423600;2023-12-07T13:44:00;0.40;99.90
7598;DHT22;3840;59.32098800;18.06423600;2023-12-07T13:46:30;0.60;99.90
7598;DHT22;3840;59.32098800;18.06423600;2023-12-07T13:48:57;0.40;99.90